sensor_id;sensor_type;location;lat;lon;timestamp;temperature;humidity
61253;DHT22;47127;47.516;8.596;2023-07-28T00:02:15;17.50;99.90
61253;DHT22;47127;47.516;8.596;2023-07-28T00:04:41;17.60;99.90
61253;DHT22;47127;47.516;8.596;2023-07-28T00:07:07;17.50;99.90
61253;DHT22;47127;47.516;8.596;2023-07-28T00:09:32;17.50;99.90
61253;DHT22;47127;47.516;8.596;2023-07-28T00:11:58;17.50;99.90
61253;DHT22;47127;47.516;8.596;2023-07-28T00:14:25;17.40;99.90
61253;DHT22;47127;47.516;8.596;2023-07-28T00:16:51;17.30;99.90
61253;DHT22;47127;47.516;8.596;2023-07-28T00:19:17;17.30;99.90
61253;DHT22;47127;47.516;8.596;2023-07-28T00:21:44;17.30;99.90
61253;DHT22;47127;47.516;8.596;2023-07-28T00:24:09;17.10;99.90
61253;DHT22;47127;47.516;8.596;2023-07-28T00:26:35;17.00;99.90
61253;DHT22;47127;47.516;8.596;2023-07-28T00:29:00;17.00;99.90
61253;DHT22;47127;47.516;8.596;2023-07-28T00:31:26;17.00;99.90
61253;DHT22;47127;47.516;8.596;2023-07-28T00:33:51;16.90;99.90
61253;DHT22;47127;47.516;8.596;2023-07-28T00:36:17;17.00;99.90
61253;DHT22;47127;47.516;8.596;2023-07-28T00:38:42;17.00;99.90
61253;DHT22;47127;47.516;8.596;2023-07-28T00:41:08;17.10;99.90
61253;DHT22;47127;47.516;8.596;2023-07-28T00:43:33;17.20;99.90
61253;DHT22;47127;47.516;8.596;2023-07-28T00:45:59;17.30;99.90
61253;DHT22;47127;47.516;8.596;2023-07-28T00:48:25;17.40;99.90
61253;DHT22;47127;47.516;8.596;2023-07-28T00:50:51;17.40;99.90
61253;DHT22;47127;47.516;8.596;2023-07-28T00:53:18;17.40;99.90
61253;DHT22;47127;47.516;8.596;2023-07-28T00:55:44;17.40;99.90
61253;DHT22;47127;47.516;8.596;2023-07-28T00:58:10;17.40;99.90
61253;DHT22;47127;47.516;8.596;2023-07-28T01:00:35;17.40;99.90
61253;DHT22;47127;47.516;8.596;2023-07-28T01:03:02;17.40;99.90
61253;DHT22;47127;47.516;8.596;2023-07-28T01:08:13;17.60;99.90
61253;DHT22;47127;47.516;8.596;2023-07-28T01:10:42;17.60;99.90
61253;DHT22;47127;47.516;8.596;2023-07-28T01:13:07;17.50;99.90
61253;DHT22;47127;47.516;8.596;2023-07-28T01:15:33;17.50;99.90
61253;DHT22;47127;47.516;8.596;2023-07-28T01:17:59;17.40;99.90
61253;DHT22;47127;47.516;8.596;2023-07-28T01:20:25;17.50;99.90
61253;DHT22;47127;47.516;8.596;2023-07-28T01:23:18;17.50;99.90
61253;DHT22;47127;47.516;8.596;2023-07-28T01:28:35;17.20;99.90
61253;DHT22;47127;47.516;8.596;2023-07-28T01:31:05;17.10;99.90
61253;DHT22;47127;47.516;8.596;2023-07-28T01:33:32;17.00;99.90
61253;DHT22;47127;47.516;8.596;2023-07-28T01:35:58;17.00;99.90
61253;DHT22;47127;47.516;8.596;2023-07-28T01:38:25;17.10;99.90
61253;DHT22;47127;47.516;8.596;2023-07-28T01:40:51;17.20;99.90
61253;DHT22;47127;47.516;8.596;2023-07-28T01:43:16;17.30;99.90
61253;DHT22;47127;47.516;8.596;2023-07-28T01:45:42;17.30;99.90
61253;DHT22;47127;47.516;8.596;2023-07-28T01:48:08;17.20;99.90
61253;DHT22;47127;47.516;8.596;2023-07-28T01:50:36;17.20;99.90
61253;DHT22;47127;47.516;8.596;2023-07-28T01:53:03;17.30;99.90
61253;DHT22;47127;47.516;8.596;2023-07-28T01:55:29;17.30;99.90
61253;DHT22;47127;47.516;8.596;2023-07-28T01:57:59;17.30;99.90
61253;DHT22;47127;47.516;8.596;2023-07-28T02:00:25;17.20;99.90
61253;DHT22;47127;47.516;8.596;2023-07-28T02:02:51;17.10;99.90
61253;DHT22;47127;47.516;8.596;2023-07-28T02:05:17;17.00;99.90
61253;DHT22;47127;47.516;8.596;2023-07-28T02:07:43;17.00;99.90
61253;DHT22;47127;47.516;8.596;2023-07-28T02:10:09;17.10;99.90
61253;DHT22;47127;47.516;8.596;2023-07-28T02:12:36;17.20;99.90
61253;DHT22;47127;47.516;8.596;2023-07-28T02:15:01;17.30;99.90
61253;DHT22;47127;47.516;8.596;2023-07-28T02:17:27;17.40;99.90
61253;DHT22;47127;47.516;8.596;2023-07-28T02:19:53;17.40;99.90
61253;DHT22;47127;47.516;8.596;2023-07-28T02:22:18;17.30;99.90
61253;DHT22;47127;47.516;8.596;2023-07-28T02:24:43;17.30;99.90
61253;DHT22;47127;47.516;8.596;2023-07-28T02:27:09;17.30;99.90
61253;DHT22;47127;47.516;8.596;2023-07-28T02:29:35;17.20;99.90
61253;DHT22;47127;47.516;8.596;2023-07-28T02:32:00;17.20;99.90
61253;DHT22;47127;47.516;8.596;2023-07-28T02:34:26;17.30;99.90
61253;DHT22;47127;47.516;8.596;2023-07-28T02:36:51;17.10;99.90
61253;DHT22;47127;47.516;8.596;2023-07-28T02:39:17;17.10;99.90
61253;DHT22;47127;47.516;8.596;2023-07-28T02:41:43;17.10;99.90
61253;DHT22;47127;47.516;8.596;2023-07-28T02:44:08;17.00;99.90
61253;DHT22;47127;47.516;8.596;2023-07-28T02:46:34;17.00;99.90
61253;DHT22;47127;47.516;8.596;2023-07-28T02:48:59;17.10;99.90
61253;DHT22;47127;47.516;8.596;2023-07-28T02:51:25;17.00;99.90
61253;DHT22;47127;47.516;8.596;2023-07-28T02:53:50;17.00;99.90
61253;DHT22;47127;47.516;8.596;2023-07-28T02:56:16;17.00;99.90
61253;DHT22;47127;47.516;8.596;2023-07-28T02:58:41;17.00;99.90
61253;DHT22;47127;47.516;8.596;2023-07-28T03:01:07;17.00;99.90
61253;DHT22;47127;47.516;8.596;2023-07-28T03:03:32;17.00;99.90
61253;DHT22;47127;47.516;8.596;2023-07-28T03:05:58;17.10;99.90
61253;DHT22;47127;47.516;8.596;2023-07-28T03:08:23;17.20;99.90
61253;DHT22;47127;47.516;8.596;2023-07-28T03:10:49;17.20;99.90
61253;DHT22;47127;47.516;8.596;2023-07-28T03:13:14;17.20;99.90
61253;DHT22;47127;47.516;8.596;2023-07-28T03:15:40;17.20;99.90
61253;DHT22;47127;47.516;8.596;2023-07-28T03:18:05;17.20;99.90
61253;DHT22;47127;47.516;8.596;2023-07-28T03:20:31;17.10;99.90
61253;DHT22;47127;47.516;8.596;2023-07-28T03:22:56;16.80;99.90
61253;DHT22;47127;47.516;8.596;2023-07-28T03:25:22;16.70;99.90
61253;DHT22;47127;47.516;8.596;2023-07-28T03:27:47;16.70;99.90
61253;DHT22;47127;47.516;8.596;2023-07-28T03:30:13;16.60;99.90
61253;DHT22;47127;47.516;8.596;2023-07-28T03:32:39;16.60;99.90
61253;DHT22;47127;47.516;8.596;2023-07-28T03:35:06;16.60;99.90
61253;DHT22;47127;47.516;8.596;2023-07-28T03:37:32;16.50;99.90
61253;DHT22;47127;47.516;8.596;2023-07-28T03:39:58;16.60;99.90
61253;DHT22;47127;47.516;8.596;2023-07-28T03:42:24;16.60;99.90
61253;DHT22;47127;47.516;8.596;2023-07-28T03:44:49;16.60;99.90
61253;DHT22;47127;47.516;8.596;2023-07-28T03:47:15;16.60;99.90
61253;DHT22;47127;47.516;8.596;2023-07-28T03:49:41;16.60;99.90
61253;DHT22;47127;47.516;8.596;2023-07-28T03:52:06;16.70;99.90
61253;DHT22;47127;47.516;8.596;2023-07-28T03:54:32;16.70;99.90
61253;DHT22;47127;47.516;8.596;2023-07-28T03:56:57;16.80;99.90
61253;DHT22;47127;47.516;8.596;2023-07-28T03:59:23;16.90;99.90
61253;DHT22;47127;47.516;8.596;2023-07-28T04:01:48;16.90;99.90
61253;DHT22;47127;47.516;8.596;2023-07-28T04:04:14;16.90;99.90
61253;DHT22;47127;47.516;8.596;2023-07-28T04:06:45;16.90;99.90
61253;DHT22;47127;47.516;8.596;2023-07-28T04:09:14;16.90;99.90
61253;DHT22;47127;47.516;8.596;2023-07-28T04:11:41;16.80;99.90
61253;DHT22;47127;47.516;8.596;2023-07-28T04:14:06;16.80;99.90
61253;DHT22;47127;47.516;8.596;2023-07-28T04:16:32;16.70;99.90
61253;DHT22;47127;47.516;8.596;2023-07-28T04:18:59;16.70;99.90
61253;DHT22;47127;47.516;8.596;2023-07-28T04:21:24;16.60;99.90
61253;DHT22;47127;47.516;8.596;2023-07-28T04:23:50;16.60;99.90
61253;DHT22;47127;47.516;8.596;2023-07-28T04:26:18;16.60;99.90
61253;DHT22;47127;47.516;8.596;2023-07-28T04:28:44;16.60;99.90
61253;DHT22;47127;47.516;8.596;2023-07-28T04:31:10;16.60;99.90
61253;DHT22;47127;47.516;8.596;2023-07-28T04:33:36;16.70;99.90
61253;DHT22;47127;47.516;8.596;2023-07-28T04:36:05;16.70;99.90
61253;DHT22;47127;47.516;8.596;2023-07-28T04:38:31;16.80;99.90
61253;DHT22;47127;47.516;8.596;2023-07-28T04:40:56;16.80;99.90
61253;DHT22;47127;47.516;8.596;2023-07-28T04:43:22;16.80;99.90
61253;DHT22;47127;47.516;8.596;2023-07-28T04:45:47;16.80;99.90
61253;DHT22;47127;47.516;8.596;2023-07-28T04:48:13;16.90;99.90
61253;DHT22;47127;47.516;8.596;2023-07-28T04:50:38;17.10;99.90
61253;DHT22;47127;47.516;8.596;2023-07-28T04:53:04;17.10;99.90
61253;DHT22;47127;47.516;8.596;2023-07-28T04:55:30;17.20;99.90
61253;DHT22;47127;47.516;8.596;2023-07-28T04:57:56;17.30;99.90
61253;DHT22;47127;47.516;8.596;2023-07-28T05:00:22;17.40;99.90
61253;DHT22;47127;47.516;8.596;2023-07-28T05:02:49;18.00;99.90
61253;DHT22;47127;47.516;8.596;2023-07-28T05:05:14;17.50;99.90
61253;DHT22;47127;47.516;8.596;2023-07-28T05:07:40;17.60;99.90
61253;DHT22;47127;47.516;8.596;2023-07-28T05:10:06;17.70;99.90
61253;DHT22;47127;47.516;8.596;2023-07-28T05:12:32;17.80;99.90
61253;DHT22;47127;47.516;8.596;2023-07-28T05:14:57;17.90;99.90
61253;DHT22;47127;47.516;8.596;2023-07-28T05:17:23;18.10;99.90
61253;DHT22;47127;47.516;8.596;2023-07-28T05:19:50;18.10;99.90
61253;DHT22;47127;47.516;8.596;2023-07-28T05:22:16;18.20;99.90
61253;DHT22;47127;47.516;8.596;2023-07-28T05:24:42;18.30;99.90
61253;DHT22;47127;47.516;8.596;2023-07-28T05:27:07;18.40;99.90
61253;DHT22;47127;47.516;8.596;2023-07-28T05:29:33;18.50;99.90
61253;DHT22;47127;47.516;8.596;2023-07-28T05:31:58;18.50;99.90
61253;DHT22;47127;47.516;8.596;2023-07-28T05:34:25;18.60;99.90
61253;DHT22;47127;47.516;8.596;2023-07-28T05:36:50;18.70;99.90
61253;DHT22;47127;47.516;8.596;2023-07-28T05:39:16;18.70;99.90
61253;DHT22;47127;47.516;8.596;2023-07-28T05:41:41;18.80;99.90
61253;DHT22;47127;47.516;8.596;2023-07-28T05:44:07;18.80;99.90
61253;DHT22;47127;47.516;8.596;2023-07-28T05:46:32;18.90;99.90
61253;DHT22;47127;47.516;8.596;2023-07-28T05:48:59;19.10;99.90
61253;DHT22;47127;47.516;8.596;2023-07-28T05:51:25;19.10;99.90
61253;DHT22;47127;47.516;8.596;2023-07-28T05:53:50;19.30;99.90
61253;DHT22;47127;47.516;8.596;2023-07-28T05:56:16;19.40;99.90
61253;DHT22;47127;47.516;8.596;2023-07-28T05:58:44;19.40;99.90
61253;DHT22;47127;47.516;8.596;2023-07-28T06:01:09;19.40;99.90
61253;DHT22;47127;47.516;8.596;2023-07-28T06:03:35;19.50;99.90
61253;DHT22;47127;47.516;8.596;2023-07-28T06:06:01;19.70;99.90
61253;DHT22;47127;47.516;8.596;2023-07-28T06:08:26;19.70;99.90
61253;DHT22;47127;47.516;8.596;2023-07-28T06:10:52;19.80;99.90
61253;DHT22;47127;47.516;8.596;2023-07-28T06:13:19;19.80;99.90
61253;DHT22;47127;47.516;8.596;2023-07-28T06:15:44;19.90;99.90
61253;DHT22;47127;47.516;8.596;2023-07-28T06:18:10;19.80;99.90
61253;DHT22;47127;47.516;8.596;2023-07-28T06:20:36;19.80;99.90
61253;DHT22;47127;47.516;8.596;2023-07-28T06:23:01;19.90;99.90
61253;DHT22;47127;47.516;8.596;2023-07-28T06:25:27;19.90;99.90
61253;DHT22;47127;47.516;8.596;2023-07-28T06:27:52;19.90;99.90
61253;DHT22;47127;47.516;8.596;2023-07-28T06:30:18;19.90;99.90
61253;DHT22;47127;47.516;8.596;2023-07-28T06:32:44;19.90;99.90
61253;DHT22;47127;47.516;8.596;2023-07-28T06:35:09;20.00;99.90
61253;DHT22;47127;47.516;8.596;2023-07-28T06:37:36;20.10;99.90
61253;DHT22;47127;47.516;8.596;2023-07-28T06:40:07;20.00;99.90
61253;DHT22;47127;47.516;8.596;2023-07-28T06:42:35;20.20;99.90
61253;DHT22;47127;47.516;8.596;2023-07-28T06:45:05;20.30;99.90
61253;DHT22;47127;47.516;8.596;2023-07-28T06:47:30;20.30;99.90
61253;DHT22;47127;47.516;8.596;2023-07-28T06:49:56;20.50;99.90
61253;DHT22;47127;47.516;8.596;2023-07-28T06:52:21;20.60;99.90
61253;DHT22;47127;47.516;8.596;2023-07-28T06:54:47;20.60;99.90
61253;DHT22;47127;47.516;8.596;2023-07-28T06:57:15;20.80;99.90
61253;DHT22;47127;47.516;8.596;2023-07-28T06:59:40;21.00;99.90
61253;DHT22;47127;47.516;8.596;2023-07-28T07:02:06;21.20;99.90
61253;DHT22;47127;47.516;8.596;2023-07-28T07:04:32;21.20;99.90
61253;DHT22;47127;47.516;8.596;2023-07-28T07:06:57;21.10;99.90
61253;DHT22;47127;47.516;8.596;2023-07-28T07:09:23;21.30;99.90
61253;DHT22;47127;47.516;8.596;2023-07-28T07:11:49;21.30;99.90
61253;DHT22;47127;47.516;8.596;2023-07-28T07:14:15;21.30;99.90
61253;DHT22;47127;47.516;8.596;2023-07-28T07:16:40;21.20;99.90
61253;DHT22;47127;47.516;8.596;2023-07-28T07:19:06;21.20;99.90
61253;DHT22;47127;47.516;8.596;2023-07-28T07:21:31;21.10;99.90
61253;DHT22;47127;47.516;8.596;2023-07-28T07:23:57;21.00;99.90
61253;DHT22;47127;47.516;8.596;2023-07-28T07:26:22;21.10;99.90
61253;DHT22;47127;47.516;8.596;2023-07-28T07:28:48;21.10;99.90
61253;DHT22;47127;47.516;8.596;2023-07-28T07:31:14;21.20;99.90
61253;DHT22;47127;47.516;8.596;2023-07-28T07:33:41;21.30;99.90
61253;DHT22;47127;47.516;8.596;2023-07-28T07:36:12;21.30;99.90
61253;DHT22;47127;47.516;8.596;2023-07-28T07:38:38;21.40;99.90
61253;DHT22;47127;47.516;8.596;2023-07-28T07:41:06;21.50;99.90
61253;DHT22;47127;47.516;8.596;2023-07-28T07:43:31;21.70;99.90
61253;DHT22;47127;47.516;8.596;2023-07-28T07:45:57;21.70;99.90
61253;DHT22;47127;47.516;8.596;2023-07-28T07:48:23;21.80;99.90
61253;DHT22;47127;47.516;8.596;2023-07-28T07:50:48;22.00;99.90
61253;DHT22;47127;47.516;8.596;2023-07-28T07:53:14;22.10;99.90
61253;DHT22;47127;47.516;8.596;2023-07-28T07:55:39;22.20;99.90
61253;DHT22;47127;47.516;8.596;2023-07-28T07:58:05;22.10;99.90
61253;DHT22;47127;47.516;8.596;2023-07-28T08:00:30;22.20;99.90
61253;DHT22;47127;47.516;8.596;2023-07-28T08:02:56;22.40;99.90
61253;DHT22;47127;47.516;8.596;2023-07-28T08:05:21;22.30;99.90
61253;DHT22;47127;47.516;8.596;2023-07-28T08:07:47;22.30;99.90
61253;DHT22;47127;47.516;8.596;2023-07-28T08:10:13;22.20;99.90
61253;DHT22;47127;47.516;8.596;2023-07-28T08:12:38;22.30;99.90
61253;DHT22;47127;47.516;8.596;2023-07-28T08:15:05;22.20;99.90
61253;DHT22;47127;47.516;8.596;2023-07-28T08:17:30;22.20;99.90
61253;DHT22;47127;47.516;8.596;2023-07-28T08:19:56;22.20;99.90
61253;DHT22;47127;47.516;8.596;2023-07-28T08:22:21;22.20;99.90
61253;DHT22;47127;47.516;8.596;2023-07-28T08:24:47;22.30;99.90
61253;DHT22;47127;47.516;8.596;2023-07-28T08:27:13;22.20;99.90
61253;DHT22;47127;47.516;8.596;2023-07-28T08:29:38;22.30;99.90
61253;DHT22;47127;47.516;8.596;2023-07-28T08:32:04;22.50;99.90
61253;DHT22;47127;47.516;8.596;2023-07-28T08:34:30;22.70;99.90
61253;DHT22;47127;47.516;8.596;2023-07-28T08:36:55;22.80;99.90
61253;DHT22;47127;47.516;8.596;2023-07-28T08:39:21;22.70;99.90
61253;DHT22;47127;47.516;8.596;2023-07-28T08:41:46;22.70;99.90
61253;DHT22;47127;47.516;8.596;2023-07-28T08:44:12;22.70;99.90
61253;DHT22;47127;47.516;8.596;2023-07-28T08:46:37;22.60;99.90
61253;DHT22;47127;47.516;8.596;2023-07-28T08:49:03;22.60;99.90
61253;DHT22;47127;47.516;8.596;2023-07-28T08:51:29;22.70;99.90
61253;DHT22;47127;47.516;8.596;2023-07-28T08:53:56;22.80;99.90
61253;DHT22;47127;47.516;8.596;2023-07-28T08:56:23;22.90;99.90
61253;DHT22;47127;47.516;8.596;2023-07-28T08:58:49;22.90;99.90
61253;DHT22;47127;47.516;8.596;2023-07-28T09:01:22;23.00;99.90
61253;DHT22;47127;47.516;8.596;2023-07-28T09:03:49;23.30;99.90
61253;DHT22;47127;47.516;8.596;2023-07-28T09:06:14;23.40;99.90
61253;DHT22;47127;47.516;8.596;2023-07-28T09:08:40;23.50;99.90
61253;DHT22;47127;47.516;8.596;2023-07-28T09:11:11;23.60;99.90
61253;DHT22;47127;47.516;8.596;2023-07-28T09:13:40;23.70;99.90
61253;DHT22;47127;47.516;8.596;2023-07-28T09:16:19;23.60;99.90
61253;DHT22;47127;47.516;8.596;2023-07-28T09:18:45;23.60;99.90
61253;DHT22;47127;47.516;8.596;2023-07-28T09:21:18;23.70;99.90
61253;DHT22;47127;47.516;8.596;2023-07-28T09:23:46;23.80;99.90
61253;DHT22;47127;47.516;8.596;2023-07-28T09:26:13;24.10;99.90
61253;DHT22;47127;47.516;8.596;2023-07-28T09:28:40;24.20;99.90
61253;DHT22;47127;47.516;8.596;2023-07-28T09:31:07;24.10;99.90
61253;DHT22;47127;47.516;8.596;2023-07-28T09:33:35;24.10;99.90
61253;DHT22;47127;47.516;8.596;2023-07-28T09:36:11;24.10;99.90
61253;DHT22;47127;47.516;8.596;2023-07-28T09:38:38;24.10;99.90
61253;DHT22;47127;47.516;8.596;2023-07-28T09:41:06;24.50;99.90
61253;DHT22;47127;47.516;8.596;2023-07-28T09:43:35;24.70;99.90
61253;DHT22;47127;47.516;8.596;2023-07-28T09:46:03;24.70;99.90
61253;DHT22;47127;47.516;8.596;2023-07-28T09:48:32;24.60;99.90
61253;DHT22;47127;47.516;8.596;2023-07-28T09:50:59;24.60;99.90
61253;DHT22;47127;47.516;8.596;2023-07-28T09:53:28;24.70;99.90
61253;DHT22;47127;47.516;8.596;2023-07-28T09:55:55;24.80;99.90
61253;DHT22;47127;47.516;8.596;2023-07-28T09:58:24;24.80;99.90
61253;DHT22;47127;47.516;8.596;2023-07-28T10:00:51;24.70;99.90
61253;DHT22;47127;47.516;8.596;2023-07-28T10:03:17;24.70;99.90
61253;DHT22;47127;47.516;8.596;2023-07-28T10:05:44;24.70;99.90
61253;DHT22;47127;47.516;8.596;2023-07-28T10:08:10;24.90;99.90
61253;DHT22;47127;47.516;8.596;2023-07-28T10:10:36;24.80;99.90
61253;DHT22;47127;47.516;8.596;2023-07-28T10:13:02;24.70;99.90
61253;DHT22;47127;47.516;8.596;2023-07-28T10:15:32;24.80;99.90
61253;DHT22;47127;47.516;8.596;2023-07-28T10:17:58;24.70;99.90
61253;DHT22;47127;47.516;8.596;2023-07-28T10:20:38;24.60;99.90
61253;DHT22;47127;47.516;8.596;2023-07-28T10:23:06;24.80;99.90
61253;DHT22;47127;47.516;8.596;2023-07-28T10:25:36;25.10;99.90
61253;DHT22;47127;47.516;8.596;2023-07-28T10:28:03;25.20;99.90
61253;DHT22;47127;47.516;8.596;2023-07-28T10:30:38;25.30;99.90
61253;DHT22;47127;47.516;8.596;2023-07-28T10:33:05;25.30;99.50
61253;DHT22;47127;47.516;8.596;2023-07-28T10:35:31;25.30;99.50
61253;DHT22;47127;47.516;8.596;2023-07-28T10:37:57;25.20;99.70
61253;DHT22;47127;47.516;8.596;2023-07-28T10:40:27;25.20;99.60
61253;DHT22;47127;47.516;8.596;2023-07-28T10:42:54;25.10;99.50
61253;DHT22;47127;47.516;8.596;2023-07-28T10:45:22;25.30;99.90
61253;DHT22;47127;47.516;8.596;2023-07-28T10:47:48;25.40;99.90
61253;DHT22;47127;47.516;8.596;2023-07-28T10:50:15;25.70;99.10
61253;DHT22;47127;47.516;8.596;2023-07-28T10:52:41;25.70;99.40
61253;DHT22;47127;47.516;8.596;2023-07-28T10:55:17;25.80;98.80
61253;DHT22;47127;47.516;8.596;2023-07-28T10:57:44;25.60;99.10
61253;DHT22;47127;47.516;8.596;2023-07-28T11:00:11;25.90;98.50
61253;DHT22;47127;47.516;8.596;2023-07-28T11:02:48;26.10;99.70
61253;DHT22;47127;47.516;8.596;2023-07-28T11:05:19;25.90;98.70
61253;DHT22;47127;47.516;8.596;2023-07-28T11:07:46;25.70;99.50
61253;DHT22;47127;47.516;8.596;2023-07-28T11:10:15;25.60;99.30
61253;DHT22;47127;47.516;8.596;2023-07-28T11:12:41;25.50;98.90
61253;DHT22;47127;47.516;8.596;2023-07-28T11:15:12;25.30;99.90
61253;DHT22;47127;47.516;8.596;2023-07-28T11:17:43;25.30;99.60
61253;DHT22;47127;47.516;8.596;2023-07-28T11:20:18;25.30;99.20
61253;DHT22;47127;47.516;8.596;2023-07-28T11:22:46;25.40;99.40
61253;DHT22;47127;47.516;8.596;2023-07-28T11:25:12;25.40;99.60
61253;DHT22;47127;47.516;8.596;2023-07-28T11:27:39;25.50;99.90
61253;DHT22;47127;47.516;8.596;2023-07-28T11:30:07;25.70;99.90
61253;DHT22;47127;47.516;8.596;2023-07-28T11:32:36;25.70;99.90
61253;DHT22;47127;47.516;8.596;2023-07-28T11:35:07;25.50;99.50
61253;DHT22;47127;47.516;8.596;2023-07-28T11:37:35;25.40;99.80
61253;DHT22;47127;47.516;8.596;2023-07-28T11:40:01;25.50;99.70
61253;DHT22;47127;47.516;8.596;2023-07-28T11:42:30;25.40;99.80
61253;DHT22;47127;47.516;8.596;2023-07-28T11:44:56;25.50;99.90
61253;DHT22;47127;47.516;8.596;2023-07-28T11:47:22;25.40;99.50
61253;DHT22;47127;47.516;8.596;2023-07-28T11:49:49;25.50;99.00
61253;DHT22;47127;47.516;8.596;2023-07-28T11:52:16;25.30;99.50
61253;DHT22;47127;47.516;8.596;2023-07-28T11:54:41;25.20;99.80
61253;DHT22;47127;47.516;8.596;2023-07-28T11:57:09;25.20;99.90
61253;DHT22;47127;47.516;8.596;2023-07-28T11:59:35;25.10;99.80
61253;DHT22;47127;47.516;8.596;2023-07-28T12:02:04;25.10;99.90
61253;DHT22;47127;47.516;8.596;2023-07-28T12:04:32;25.30;99.90
61253;DHT22;47127;47.516;8.596;2023-07-28T12:07:17;25.50;99.40
61253;DHT22;47127;47.516;8.596;2023-07-28T12:12:11;25.90;99.50
61253;DHT22;47127;47.516;8.596;2023-07-28T12:14:37;26.10;98.40
61253;DHT22;47127;47.516;8.596;2023-07-28T12:17:11;26.20;98.60
61253;DHT22;47127;47.516;8.596;2023-07-28T12:20:02;26.20;98.40
61253;DHT22;47127;47.516;8.596;2023-07-28T12:22:27;25.90;98.40
61253;DHT22;47127;47.516;8.596;2023-07-28T12:24:53;25.90;98.70
61253;DHT22;47127;47.516;8.596;2023-07-28T12:27:19;25.90;98.80
61253;DHT22;47127;47.516;8.596;2023-07-28T12:29:49;25.80;98.40
61253;DHT22;47127;47.516;8.596;2023-07-28T12:32:14;25.60;98.50
61253;DHT22;47127;47.516;8.596;2023-07-28T12:34:40;25.50;98.40
61253;DHT22;47127;47.516;8.596;2023-07-28T12:37:06;25.40;98.40
61253;DHT22;47127;47.516;8.596;2023-07-28T12:39:32;25.30;98.50
61253;DHT22;47127;47.516;8.596;2023-07-28T12:41:58;25.50;98.60
61253;DHT22;47127;47.516;8.596;2023-07-28T12:44:23;25.60;98.50
61253;DHT22;47127;47.516;8.596;2023-07-28T12:46:49;25.70;98.20
61253;DHT22;47127;47.516;8.596;2023-07-28T12:49:15;26.10;97.90
61253;DHT22;47127;47.516;8.596;2023-07-28T12:51:41;25.90;97.80
61253;DHT22;47127;47.516;8.596;2023-07-28T12:54:07;25.80;98.20
61253;DHT22;47127;47.516;8.596;2023-07-28T12:56:33;26.00;98.50
61253;DHT22;47127;47.516;8.596;2023-07-28T12:58:58;26.00;98.10
61253;DHT22;47127;47.516;8.596;2023-07-28T13:01:24;26.20;98.60
61253;DHT22;47127;47.516;8.596;2023-07-28T13:03:49;26.40;98.30
61253;DHT22;47127;47.516;8.596;2023-07-28T13:06:15;26.50;97.70
61253;DHT22;47127;47.516;8.596;2023-07-28T13:08:40;26.10;97.70
61253;DHT22;47127;47.516;8.596;2023-07-28T13:11:06;26.00;97.90
61253;DHT22;47127;47.516;8.596;2023-07-28T13:13:31;25.80;98.20
61253;DHT22;47127;47.516;8.596;2023-07-28T13:15:58;25.70;98.60
61253;DHT22;47127;47.516;8.596;2023-07-28T13:18:24;25.60;98.60
61253;DHT22;47127;47.516;8.596;2023-07-28T13:20:50;25.40;99.20
61253;DHT22;47127;47.516;8.596;2023-07-28T13:23:16;25.70;99.00
61253;DHT22;47127;47.516;8.596;2023-07-28T13:25:42;25.90;99.10
61253;DHT22;47127;47.516;8.596;2023-07-28T13:28:07;26.00;98.90
61253;DHT22;47127;47.516;8.596;2023-07-28T13:30:33;25.80;99.00
61253;DHT22;47127;47.516;8.596;2023-07-28T13:32:58;25.70;98.90
61253;DHT22;47127;47.516;8.596;2023-07-28T13:35:25;25.50;99.40
61253;DHT22;47127;47.516;8.596;2023-07-28T13:37:51;25.50;99.30
61253;DHT22;47127;47.516;8.596;2023-07-28T13:40:16;25.30;99.90
61253;DHT22;47127;47.516;8.596;2023-07-28T13:42:42;25.30;99.90
61253;DHT22;47127;47.516;8.596;2023-07-28T13:45:09;25.40;99.70
61253;DHT22;47127;47.516;8.596;2023-07-28T13:47:34;25.40;99.70
61253;DHT22;47127;47.516;8.596;2023-07-28T13:50:00;25.20;99.90
61253;DHT22;47127;47.516;8.596;2023-07-28T13:52:25;25.30;99.70
61253;DHT22;47127;47.516;8.596;2023-07-28T13:54:52;25.20;99.50
61253;DHT22;47127;47.516;8.596;2023-07-28T13:57:17;25.10;99.90
61253;DHT22;47127;47.516;8.596;2023-07-28T13:59:43;25.10;99.90
61253;DHT22;47127;47.516;8.596;2023-07-28T14:02:08;25.20;99.90
61253;DHT22;47127;47.516;8.596;2023-07-28T14:04:34;25.30;99.90
61253;DHT22;47127;47.516;8.596;2023-07-28T14:06:59;25.10;99.90
61253;DHT22;47127;47.516;8.596;2023-07-28T14:09:25;25.10;99.90
61253;DHT22;47127;47.516;8.596;2023-07-28T14:11:50;24.90;99.90
61253;DHT22;47127;47.516;8.596;2023-07-28T14:14:16;24.80;99.90
61253;DHT22;47127;47.516;8.596;2023-07-28T14:16:42;24.70;99.90
61253;DHT22;47127;47.516;8.596;2023-07-28T14:19:08;24.60;99.90
61253;DHT22;47127;47.516;8.596;2023-07-28T14:21:34;24.50;99.90
61253;DHT22;47127;47.516;8.596;2023-07-28T14:23:59;24.50;99.90
61253;DHT22;47127;47.516;8.596;2023-07-28T14:26:25;24.40;99.90
61253;DHT22;47127;47.516;8.596;2023-07-28T14:28:50;24.20;99.90
61253;DHT22;47127;47.516;8.596;2023-07-28T14:31:16;24.10;99.90
61253;DHT22;47127;47.516;8.596;2023-07-28T14:33:42;24.10;99.90
61253;DHT22;47127;47.516;8.596;2023-07-28T14:36:08;24.00;99.90
61253;DHT22;47127;47.516;8.596;2023-07-28T14:38:34;23.90;99.90
61253;DHT22;47127;47.516;8.596;2023-07-28T14:40:59;23.70;99.90
61253;DHT22;47127;47.516;8.596;2023-07-28T14:43:25;23.50;99.90
61253;DHT22;47127;47.516;8.596;2023-07-28T14:45:51;23.40;99.90
61253;DHT22;47127;47.516;8.596;2023-07-28T14:48:17;23.10;99.90
61253;DHT22;47127;47.516;8.596;2023-07-28T14:50:42;23.00;99.90
61253;DHT22;47127;47.516;8.596;2023-07-28T14:53:28;22.70;99.90
61253;DHT22;47127;47.516;8.596;2023-07-28T14:55:54;22.50;99.90
61253;DHT22;47127;47.516;8.596;2023-07-28T14:58:20;22.10;99.90
61253;DHT22;47127;47.516;8.596;2023-07-28T15:00:46;21.90;99.90
61253;DHT22;47127;47.516;8.596;2023-07-28T15:03:11;21.70;99.90
61253;DHT22;47127;47.516;8.596;2023-07-28T15:05:37;21.40;99.90
61253;DHT22;47127;47.516;8.596;2023-07-28T15:08:03;21.30;99.90
61253;DHT22;47127;47.516;8.596;2023-07-28T15:10:28;21.20;99.90
61253;DHT22;47127;47.516;8.596;2023-07-28T15:12:54;21.00;99.90
61253;DHT22;47127;47.516;8.596;2023-07-28T15:15:19;21.00;99.90
61253;DHT22;47127;47.516;8.596;2023-07-28T15:17:45;21.00;99.90
61253;DHT22;47127;47.516;8.596;2023-07-28T15:20:11;20.90;99.90
61253;DHT22;47127;47.516;8.596;2023-07-28T15:22:36;20.90;99.90
61253;DHT22;47127;47.516;8.596;2023-07-28T15:25:02;20.90;99.90
61253;DHT22;47127;47.516;8.596;2023-07-28T15:27:28;20.90;99.90
61253;DHT22;47127;47.516;8.596;2023-07-28T15:29:53;20.90;99.90
61253;DHT22;47127;47.516;8.596;2023-07-28T15:32:19;21.00;99.90
61253;DHT22;47127;47.516;8.596;2023-07-28T15:34:45;21.00;99.90